Time;durP1;ratioP1;P1;durP2;ratioP2;P2;SDS_P1;SDS_P2;PMS_P1;PMS_P2;Temp;Humidity;BMP_temperature;BMP_pressure;BME280_temperature;BME280_humidity;BME280_pressure;Samples;Min_cycle;Max_cycle;Signal;HPM_P1;HPM_P2
2021/06/09 00:01:10;;;;;;;39.70;36.60;;;;;;;;;;5052183;28;20438;-87
2021/06/09 00:03:45;;;;;;;40.67;37.43;;;;;;;;;;5049371;28;20462;-87
2021/06/09 00:06:15;;;;;;;40.77;37.37;;;;;;;;;;5048042;28;20465;-87
2021/06/09 00:08:44;;;;;;;40.50;37.20;;;;;;;;;;5049594;28;20767;-87
2021/06/09 00:11:11;;;;;;;40.40;36.90;;;;;;;;;;5052224;28;20425;-87
2021/06/09 00:13:40;;;;;;;40.17;36.97;;;;;;;;;;5048771;28;20409;-87
2021/06/09 00:16:12;;;;;;;41.87;38.37;;;;;;;;;;5047125;28;20436;-88
2021/06/09 00:18:43;;;;;;;40.50;37.33;;;;;;;;;;5053383;28;20798;-87
2021/06/09 00:21:11;;;;;;;38.63;35.43;;;;;;;;;;5052435;28;20411;-87
2021/06/09 00:23:37;;;;;;;42.43;39.10;;;;;;;;;;5051684;28;20466;-87
2021/06/09 00:26:07;;;;;;;39.57;36.53;;;;;;;;;;5047334;28;20415;-87
2021/06/09 00:28:38;;;;;;;38.80;35.60;;;;;;;;;;5045372;28;20456;-86
2021/06/09 00:31:06;;;;;;;42.73;39.20;;;;;;;;;;5042644;28;20426;-87
2021/06/09 00:33:33;;;;;;;41.37;37.97;;;;;;;;;;5038344;28;20442;-87
2021/06/09 00:36:00;;;;;;;42.97;39.47;;;;;;;;;;5038061;28;20474;-87
2021/06/09 00:38:27;;;;;;;41.37;37.97;;;;;;;;;;5038643;28;20481;-87
2021/06/09 00:40:54;;;;;;;40.47;37.10;;;;;;;;;;5038435;28;20911;-87
2021/06/09 00:43:23;;;;;;;43.20;39.60;;;;;;;;;;5040731;28;20913;-87
2021/06/09 00:45:56;;;;;;;42.00;38.70;;;;;;;;;;5042152;28;20419;-86
2021/06/09 00:48:26;;;;;;;41.53;38.20;;;;;;;;;;5053895;28;20450;-87
2021/06/09 00:50:53;;;;;;;40.73;37.33;;;;;;;;;;5038848;28;20494;-87
2021/06/09 00:53:35;;;;;;;41.63;38.13;;;;;;;;;;5042543;28;20441;-87
2021/06/09 00:56:06;;;;;;;39.80;36.70;;;;;;;;;;5047717;28;20409;-87
2021/06/09 00:58:34;;;;;;;42.20;39.03;;;;;;;;;;5038167;28;20509;-88
2021/06/09 01:01:02;;;;;;;40.53;37.43;;;;;;;;;;5036736;28;20460;-87
2021/06/09 01:03:28;;;;;;;39.30;36.30;;;;;;;;;;5039467;28;20872;-87
2021/06/09 01:05:58;;;;;;;41.50;38.10;;;;;;;;;;5050961;28;20510;-87
2021/06/09 01:08:25;;;;;;;41.50;38.20;;;;;;;;;;5044646;28;20508;-87
2021/06/09 01:10:52;;;;;;;41.50;38.20;;;;;;;;;;5042304;28;20445;-87
2021/06/09 01:13:21;;;;;;;42.77;39.30;;;;;;;;;;5044968;28;20442;-86
2021/06/09 01:15:51;;;;;;;41.30;38.07;;;;;;;;;;5044295;28;20458;-87
2021/06/09 01:18:21;;;;;;;42.37;38.50;;;;;;;;;;5042692;28;20416;-87
2021/06/09 01:20:48;;;;;;;42.63;39.10;;;;;;;;;;5043258;28;20441;-87
2021/06/09 01:23:16;;;;;;;41.80;38.57;;;;;;;;;;5041338;28;20430;-87
2021/06/09 01:25:43;;;;;;;39.30;36.03;;;;;;;;;;5036765;28;20442;-87
2021/06/09 01:28:11;;;;;;;39.17;36.10;;;;;;;;;;5038194;28;20505;-87
2021/06/09 01:30:47;;;;;;;39.97;36.77;;;;;;;;;;5045729;28;20421;-86
2021/06/09 01:33:14;;;;;;;42.70;39.27;;;;;;;;;;5043448;28;20422;-87
2021/06/09 01:35:43;;;;;;;40.83;37.57;;;;;;;;;;5043048;28;20426;-87
2021/06/09 01:38:10;;;;;;;43.37;39.70;;;;;;;;;;5041431;28;20486;-88
2021/06/09 01:40:40;;;;;;;41.80;38.53;;;;;;;;;;5048184;28;20423;-87
2021/06/09 01:43:08;;;;;;;43.30;39.90;;;;;;;;;;5052061;28;20404;-83
2021/06/09 01:45:39;;;;;;;43.37;39.67;;;;;;;;;;5074034;22;20462;-86
2021/06/09 01:48:06;;;;;;;40.37;37.17;;;;;;;;;;5038790;28;21059;-87
2021/06/09 01:50:35;;;;;;;44.67;40.97;;;;;;;;;;5042140;28;20442;-87
2021/06/09 01:55:50;;;;;;;42.37;38.70;;;;;;;;;;5040468;28;20919;-87
2021/06/09 01:58:23;;;;;;;44.43;40.80;;;;;;;;;;5042842;28;20453;-87
2021/06/09 02:00:50;;;;;;;41.97;38.67;;;;;;;;;;5093352;22;20422;-87
2021/06/09 02:03:17;;;;;;;41.07;37.67;;;;;;;;;;5059077;28;20528;-87
2021/06/09 02:05:45;;;;;;;45.03;41.23;;;;;;;;;;5066862;28;20436;-87
2021/06/09 02:08:13;;;;;;;44.00;40.23;;;;;;;;;;5067349;28;20482;-87
2021/06/09 02:10:41;;;;;;;41.83;38.43;;;;;;;;;;5065270;28;20463;-87
2021/06/09 02:13:10;;;;;;;48.07;43.90;;;;;;;;;;5062559;28;20419;-87
2021/06/09 02:15:38;;;;;;;45.53;41.70;;;;;;;;;;5063516;28;20452;-87
2021/06/09 02:18:14;;;;;;;44.67;40.90;;;;;;;;;;5062454;28;20427;-87
2021/06/09 02:20:44;;;;;;;43.30;39.63;;;;;;;;;;5057137;28;20799;-87
2021/06/09 02:23:24;;;;;;;44.83;41.20;;;;;;;;;;5058016;28;20423;-88
2021/06/09 02:25:53;;;;;;;43.50;39.80;;;;;;;;;;5058869;28;20444;-88
2021/06/09 02:28:22;;;;;;;44.07;40.43;;;;;;;;;;5056491;28;20553;-88
2021/06/09 02:30:49;;;;;;;43.87;40.27;;;;;;;;;;5059115;28;20418;-87
2021/06/09 02:36:00;;;;;;;42.47;39.07;;;;;;;;;;5067065;28;20478;-87
2021/06/09 02:38:27;;;;;;;39.30;36.37;;;;;;;;;;5065758;28;20837;-88
2021/06/09 02:40:55;;;;;;;41.60;38.20;;;;;;;;;;5055201;28;20428;-87
2021/06/09 02:43:30;;;;;;;43.60;39.90;;;;;;;;;;5055289;28;20433;-87
2021/06/09 02:45:57;;;;;;;42.90;39.00;;;;;;;;;;5057931;28;20840;-87
2021/06/09 02:48:25;;;;;;;39.03;35.83;;;;;;;;;;5054146;28;20978;-85
2021/06/09 02:50:53;;;;;;;38.90;35.57;;;;;;;;;;5058252;28;20449;-87
2021/06/09 02:53:23;;;;;;;39.63;36.43;;;;;;;;;;5064712;28;20494;-87
2021/06/09 02:55:54;;;;;;;41.43;38.00;;;;;;;;;;5064741;28;20463;-87
2021/06/09 02:58:28;;;;;;;40.80;37.40;;;;;;;;;;5065949;28;20456;-87
2021/06/09 03:00:59;;;;;;;40.10;37.00;;;;;;;;;;5061096;28;20431;-87
2021/06/09 03:03:27;;;;;;;41.93;38.40;;;;;;;;;;5058837;28;20879;-87
2021/06/09 03:05:57;;;;;;;40.40;37.03;;;;;;;;;;5059404;28;20448;-88
2021/06/09 03:08:28;;;;;;;39.93;36.73;;;;;;;;;;5059987;28;20457;-86
2021/06/09 03:10:58;;;;;;;37.77;34.77;;;;;;;;;;5061464;28;20422;-87
2021/06/09 03:13:40;;;;;;;38.23;35.10;;;;;;;;;;5062311;28;20407;-88
2021/06/09 03:16:10;;;;;;;38.63;35.57;;;;;;;;;;5058639;28;20456;-87
2021/06/09 03:18:40;;;;;;;39.20;35.93;;;;;;;;;;5059932;28;20916;-87
2021/06/09 03:21:08;;;;;;;38.30;35.40;;;;;;;;;;5057200;28;20421;-87
2021/06/09 03:23:41;;;;;;;37.87;34.90;;;;;;;;;;5058989;28;20434;-87
2021/06/09 03:26:11;;;;;;;38.50;35.57;;;;;;;;;;5059137;28;20409;-87
2021/06/09 03:28:49;;;;;;;36.43;33.33;;;;;;;;;;5066071;28;20480;-87
2021/06/09 03:31:18;;;;;;;38.80;35.70;;;;;;;;;;5065125;28;20418;-88
2021/06/09 03:33:49;;;;;;;35.03;32.43;;;;;;;;;;5062712;28;20416;-88
2021/06/09 03:36:40;;;;;;;35.13;32.53;;;;;;;;;;5068857;28;20469;-88
2021/06/09 03:39:08;;;;;;;35.33;32.73;;;;;;;;;;5057893;28;20840;-88
2021/06/09 03:41:36;;;;;;;32.80;30.20;;;;;;;;;;5057101;28;20528;-87
2021/06/09 03:44:05;;;;;;;32.87;30.33;;;;;;;;;;5056812;28;20439;-88
2021/06/09 03:46:33;;;;;;;36.37;33.37;;;;;;;;;;5057466;28;20441;-88
2021/06/09 03:49:00;;;;;;;32.83;30.43;;;;;;;;;;5057049;28;20443;-87
2021/06/09 03:51:29;;;;;;;34.53;31.90;;;;;;;;;;5058673;28;20886;-87
2021/06/09 03:53:58;;;;;;;35.93;33.07;;;;;;;;;;5056847;28;20414;-88
2021/06/09 03:56:25;;;;;;;32.50;30.20;;;;;;;;;;5058109;28;20446;-92
2021/06/09 03:58:52;;;;;;;36.00;32.97;;;;;;;;;;5056906;28;20496;-91
2021/06/09 04:01:21;;;;;;;33.13;30.43;;;;;;;;;;5056790;28;20482;-92
2021/06/09 04:03:49;;;;;;;34.43;31.83;;;;;;;;;;5056865;28;20490;-92
2021/06/09 04:06:17;;;;;;;36.50;33.70;;;;;;;;;;5056760;28;20404;-91
2021/06/09 04:08:45;;;;;;;36.47;33.37;;;;;;;;;;5056531;28;20464;-92
2021/06/09 04:11:14;;;;;;;35.27;32.67;;;;;;;;;;5055647;28;20415;-92
2021/06/09 04:13:41;;;;;;;36.57;33.50;;;;;;;;;;5056529;28;20988;-91
2021/06/09 04:16:09;;;;;;;37.07;34.27;;;;;;;;;;5056447;28;20949;-92
2021/06/09 04:18:38;;;;;;;34.57;31.87;;;;;;;;;;5057255;28;20446;-92
2021/06/09 04:21:06;;;;;;;37.07;34.00;;;;;;;;;;5055865;28;20859;-92
2021/06/09 04:23:38;;;;;;;37.40;34.40;;;;;;;;;;5059303;28;20436;-91
2021/06/09 04:26:06;;;;;;;42.60;39.00;;;;;;;;;;5072539;28;20444;-92
2021/06/09 04:28:33;;;;;;;38.50;35.50;;;;;;;;;;5056753;28;20481;-91
2021/06/09 04:31:01;;;;;;;39.73;36.50;;;;;;;;;;5056081;28;20437;-91
2021/06/09 04:33:29;;;;;;;38.97;36.00;;;;;;;;;;5059750;28;20920;-92
2021/06/09 04:35:58;;;;;;;40.30;36.80;;;;;;;;;;5059013;28;20433;-92
2021/06/09 04:38:25;;;;;;;40.23;36.50;;;;;;;;;;5059105;28;20414;-91
2021/06/09 04:40:53;;;;;;;40.27;36.70;;;;;;;;;;5058162;28;20446;-91
2021/06/09 04:46:03;;;;;;;39.37;36.20;;;;;;;;;;5068800;28;20449;-91
2021/06/09 04:48:32;;;;;;;41.47;38.17;;;;;;;;;;5058153;28;20485;-92
2021/06/09 04:51:01;;;;;;;42.50;39.10;;;;;;;;;;5063533;28;20457;-91
2021/06/09 04:53:27;;;;;;;40.80;37.23;;;;;;;;;;5069256;28;20423;-92
2021/06/09 04:55:55;;;;;;;40.97;37.57;;;;;;;;;;5058143;28;20442;-91
2021/06/09 04:58:23;;;;;;;39.50;36.20;;;;;;;;;;5059220;28;20450;-92
2021/06/09 05:00:50;;;;;;;42.13;38.70;;;;;;;;;;5064083;28;20421;-91
2021/06/09 05:03:30;;;;;;;41.70;38.10;;;;;;;;;;5069573;28;20434;-92
2021/06/09 05:05:57;;;;;;;48.33;43.87;;;;;;;;;;5060648;28;20915;-92
2021/06/09 05:08:26;;;;;;;45.30;41.13;;;;;;;;;;5055286;28;20465;-91
2021/06/09 05:10:53;;;;;;;48.90;44.70;;;;;;;;;;5055291;28;20454;-90
2021/06/09 05:13:23;;;;;;;53.00;47.97;;;;;;;;;;5056482;28;20416;-91
2021/06/09 05:15:52;;;;;;;51.30;46.90;;;;;;;;;;5055785;28;20444;-91
2021/06/09 05:18:21;;;;;;;53.87;48.67;;;;;;;;;;5055083;28;20414;-91
2021/06/09 05:20:50;;;;;;;52.90;47.90;;;;;;;;;;5056405;28;20436;-90
2021/06/09 05:23:20;;;;;;;56.27;50.87;;;;;;;;;;5055255;28;20402;-91
2021/06/09 05:25:49;;;;;;;50.93;46.43;;;;;;;;;;5055331;28;20440;-91
2021/06/09 05:28:17;;;;;;;52.70;48.00;;;;;;;;;;5054727;28;20487;-91
2021/06/09 05:30:44;;;;;;;52.67;47.90;;;;;;;;;;5055323;28;20433;-91
2021/06/09 05:33:11;;;;;;;55.67;50.37;;;;;;;;;;5055289;28;20414;-91
2021/06/09 05:35:38;;;;;;;52.67;47.90;;;;;;;;;;5054173;28;20439;-91
2021/06/09 05:38:06;;;;;;;55.23;50.13;;;;;;;;;;5055086;28;20438;-91
2021/06/09 05:40:33;;;;;;;54.60;49.60;;;;;;;;;;5053763;28;20415;-91
2021/06/09 05:43:01;;;;;;;54.53;49.40;;;;;;;;;;5055026;28;20918;-91
2021/06/09 05:45:29;;;;;;;55.43;50.23;;;;;;;;;;5054614;28;20938;-91
2021/06/09 05:47:56;;;;;;;54.13;48.83;;;;;;;;;;5055016;28;20464;-91
2021/06/09 05:50:24;;;;;;;56.07;51.00;;;;;;;;;;5054750;28;20987;-91
2021/06/09 05:52:52;;;;;;;52.20;47.37;;;;;;;;;;5054653;28;20938;-91
2021/06/09 05:55:19;;;;;;;55.30;49.87;;;;;;;;;;5055534;28;20808;-90
2021/06/09 05:57:46;;;;;;;56.63;50.77;;;;;;;;;;5054849;28;20465;-91
2021/06/09 06:00:16;;;;;;;58.10;52.50;;;;;;;;;;5055083;28;20406;-89
2021/06/09 06:02:43;;;;;;;57.27;51.30;;;;;;;;;;5054450;28;20446;-91
2021/06/09 06:05:10;;;;;;;58.63;52.97;;;;;;;;;;5055711;28;20411;-92
2021/06/09 06:07:37;;;;;;;59.40;53.27;;;;;;;;;;5063304;28;20476;-92
2021/06/09 06:10:05;;;;;;;55.90;50.70;;;;;;;;;;5073347;28;20407;-92
2021/06/09 06:12:32;;;;;;;55.73;49.63;;;;;;;;;;5056861;28;20447;-92
2021/06/09 06:14:59;;;;;;;54.93;49.60;;;;;;;;;;5054501;28;20446;-91
2021/06/09 06:17:28;;;;;;;55.30;50.03;;;;;;;;;;5054746;28;20441;-94
2021/06/09 06:19:55;;;;;;;57.03;51.50;;;;;;;;;;5054856;28;20435;-93
2021/06/09 06:22:22;;;;;;;51.93;46.93;;;;;;;;;;5054317;28;20459;-93
2021/06/09 06:24:50;;;;;;;57.80;52.10;;;;;;;;;;5054856;28;20408;-93
2021/06/09 06:27:19;;;;;;;59.50;53.57;;;;;;;;;;5054147;28;20557;-92
2021/06/09 06:29:47;;;;;;;58.13;52.53;;;;;;;;;;5054537;28;20915;-91
2021/06/09 06:32:14;;;;;;;59.97;53.80;;;;;;;;;;5056523;28;20498;-94
2021/06/09 06:34:44;;;;;;;57.43;52.10;;;;;;;;;;5054759;28;20830;-94
2021/06/09 06:37:11;;;;;;;57.60;51.80;;;;;;;;;;5054681;28;20463;-94
2021/06/09 06:39:38;;;;;;;58.53;52.40;;;;;;;;;;5058668;28;20415;-94
2021/06/09 06:42:06;;;;;;;55.27;50.10;;;;;;;;;;5058369;28;20432;-92
2021/06/09 06:44:33;;;;;;;56.20;50.43;;;;;;;;;;5058636;28;20894;-94
2021/06/09 06:47:00;;;;;;;57.13;51.33;;;;;;;;;;5059218;28;20430;-95
2021/06/09 06:49:28;;;;;;;56.23;50.57;;;;;;;;;;5058508;28;20923;-94
2021/06/09 06:51:57;;;;;;;57.27;51.67;;;;;;;;;;5058262;28;20867;-90
2021/06/09 06:54:24;;;;;;;55.87;50.43;;;;;;;;;;5058728;28;20419;-93
2021/06/09 06:56:52;;;;;;;57.03;51.43;;;;;;;;;;5058418;28;20477;-91
2021/06/09 06:59:21;;;;;;;57.07;51.63;;;;;;;;;;5057439;28;20420;-84
2021/06/09 07:01:48;;;;;;;59.57;53.67;;;;;;;;;;5057450;28;20815;-94
2021/06/09 07:04:17;;;;;;;56.10;50.70;;;;;;;;;;5057423;28;20460;-89
2021/06/09 07:06:44;;;;;;;59.30;53.53;;;;;;;;;;5057013;28;20972;-91
2021/06/09 07:09:13;;;;;;;57.47;51.57;;;;;;;;;;5058444;28;20495;-93
2021/06/09 07:11:42;;;;;;;58.83;52.90;;;;;;;;;;5059497;28;20444;-93
2021/06/09 07:14:09;;;;;;;57.30;51.80;;;;;;;;;;5058107;28;20468;-92
2021/06/09 07:16:37;;;;;;;59.23;53.53;;;;;;;;;;5057782;28;20456;-93
2021/06/09 07:19:04;;;;;;;57.27;51.73;;;;;;;;;;5060924;28;20437;-93
2021/06/09 07:21:31;;;;;;;57.33;51.90;;;;;;;;;;5058739;28;20880;-94
2021/06/09 07:23:58;;;;;;;58.47;52.77;;;;;;;;;;5057289;28;20496;-93
2021/06/09 07:26:29;;;;;;;59.53;53.93;;;;;;;;;;5057546;28;20416;-92
2021/06/09 07:28:57;;;;;;;57.73;52.27;;;;;;;;;;5057685;28;20490;-94
2021/06/09 07:31:26;;;;;;;55.30;50.40;;;;;;;;;;5057748;28;20429;-93
2021/06/09 07:33:53;;;;;;;57.10;51.47;;;;;;;;;;5057814;28;20421;-93
2021/06/09 07:36:21;;;;;;;57.77;52.20;;;;;;;;;;5057372;28;20533;-94
2021/06/09 07:38:55;;;;;;;57.13;51.73;;;;;;;;;;5056959;28;20429;-92
2021/06/09 07:41:23;;;;;;;55.60;50.60;;;;;;;;;;5059642;28;20788;-92
2021/06/09 07:43:54;;;;;;;51.67;46.87;;;;;;;;;;5060185;28;20419;-94
2021/06/09 07:46:26;;;;;;;53.33;48.40;;;;;;;;;;5061123;28;20412;-93
2021/06/09 07:48:54;;;;;;;51.23;46.73;;;;;;;;;;5059466;28;20629;-91
2021/06/09 07:51:21;;;;;;;46.93;42.80;;;;;;;;;;5059917;28;20447;-92
2021/06/09 07:53:53;;;;;;;56.23;51.07;;;;;;;;;;5057881;28;21007;-90
2021/06/09 07:56:21;;;;;;;54.20;49.23;;;;;;;;;;5059602;28;20419;-88
2021/06/09 07:58:49;;;;;;;51.50;46.90;;;;;;;;;;5059071;28;20407;-89
2021/06/09 08:01:18;;;;;;;49.60;45.20;;;;;;;;;;5057633;28;20516;-89
2021/06/09 08:03:45;;;;;;;52.97;48.27;;;;;;;;;;5058793;28;20436;-89
2021/06/09 08:06:12;;;;;;;48.10;43.90;;;;;;;;;;5059133;28;20434;-95
2021/06/09 08:08:40;;;;;;;49.67;45.30;;;;;;;;;;5060878;28;20501;-92
2021/06/09 08:11:08;;;;;;;48.20;43.43;;;;;;;;;;5059868;28;20634;-94
2021/06/09 08:13:35;;;;;;;46.77;42.67;;;;;;;;;;5060619;28;20511;-96
2021/06/09 08:16:02;;;;;;;48.13;43.83;;;;;;;;;;5071740;28;20428;-96
2021/06/09 08:18:31;;;;;;;54.27;49.10;;;;;;;;;;5070377;28;20457;-96
2021/06/09 08:21:06;;;;;;;48.90;44.60;;;;;;;;;;5059004;28;20454;-89
2021/06/09 08:23:33;;;;;;;48.50;44.20;;;;;;;;;;5069475;28;20401;-93
2021/06/09 08:26:06;;;;;;;53.93;49.13;;;;;;;;;;5080220;28;20419;-87
2021/06/09 08:28:35;;;;;;;49.13;44.97;;;;;;;;;;5068826;28;20553;-91
2021/06/09 08:31:03;;;;;;;46.07;42.07;;;;;;;;;;5064204;28;20416;-96
2021/06/09 08:33:32;;;;;;;43.10;39.60;;;;;;;;;;5059680;28;20432;-91
2021/06/09 08:35:59;;;;;;;44.57;40.37;;;;;;;;;;5066238;28;20537;-94
2021/06/09 08:38:26;;;;;;;47.47;43.57;;;;;;;;;;5069041;28;20849;-96
2021/06/09 08:40:58;;;;;;;44.50;40.33;;;;;;;;;;5064319;28;20483;-78
2021/06/09 08:43:25;;;;;;;41.00;37.50;;;;;;;;;;5067094;28;20438;-80
2021/06/09 08:45:52;;;;;;;40.30;36.90;;;;;;;;;;5072722;28;20418;-82
2021/06/09 08:48:19;;;;;;;42.90;39.50;;;;;;;;;;5077498;28;20460;-96
2021/06/09 08:50:49;;;;;;;45.23;40.80;;;;;;;;;;5073130;28;20931;-96
2021/06/09 08:53:18;;;;;;;45.00;41.10;;;;;;;;;;5064388;28;20428;-96
2021/06/09 08:55:46;;;;;;;46.77;42.73;;;;;;;;;;5063068;28;20435;-96
2021/06/09 08:58:13;;;;;;;44.90;40.73;;;;;;;;;;5071584;28;20452;-96
2021/06/09 09:00:40;;;;;;;46.07;41.97;;;;;;;;;;5068111;28;20435;-96
2021/06/09 09:05:43;;;;;;;42.37;38.77;;;;;;;;;;5349653;22;20492;-96
2021/06/09 09:08:12;;;;;;;42.87;39.07;;;;;;;;;;5084951;28;20454;-96
2021/06/09 09:10:38;;;;;;;42.73;38.93;;;;;;;;;;5088862;28;20429;-96
2021/06/09 09:13:05;;;;;;;41.43;38.07;;;;;;;;;;5088691;28;20420;-96
2021/06/09 09:15:33;;;;;;;42.23;38.90;;;;;;;;;;5092441;28;20463;-96
2021/06/09 09:18:01;;;;;;;43.23;39.73;;;;;;;;;;5086077;28;20440;-96
2021/06/09 09:20:29;;;;;;;46.83;42.73;;;;;;;;;;5089975;28;20407;-96
2021/06/09 09:23:06;;;;;;;43.37;39.77;;;;;;;;;;5136723;22;20471;-96
2021/06/09 09:25:34;;;;;;;38.80;35.90;;;;;;;;;;5088384;28;20504;-96
2021/06/09 09:28:02;;;;;;;38.60;35.63;;;;;;;;;;5084404;28;20948;-96
2021/06/09 09:30:30;;;;;;;37.50;34.40;;;;;;;;;;5078539;28;20445;-96
2021/06/09 09:32:59;;;;;;;40.23;36.97;;;;;;;;;;5076459;28;20409;-96
2021/06/09 09:35:27;;;;;;;38.30;35.30;;;;;;;;;;5079106;28;20444;-96
2021/06/09 09:38:11;;;;;;;41.23;37.27;;;;;;;;;;5082988;28;20452;-96
2021/06/09 09:40:40;;;;;;;38.23;35.13;;;;;;;;;;5081843;28;20433;-96
2021/06/09 09:43:07;;;;;;;40.40;36.87;;;;;;;;;;5084437;28;20598;-96
2021/06/09 09:45:37;;;;;;;38.60;35.70;;;;;;;;;;5086582;28;20440;-96
2021/06/09 09:48:21;;;;;;;42.87;39.50;;;;;;;;;;5082061;28;20550;-96
2021/06/09 09:50:53;;;;;;;42.13;38.70;;;;;;;;;;5087925;28;20442;-96
2021/06/09 09:53:31;;;;;;;42.80;39.30;;;;;;;;;;5082621;28;20445;-96
2021/06/09 09:56:12;;;;;;;38.30;35.10;;;;;;;;;;5081197;28;20492;-96
2021/06/09 09:58:51;;;;;;;38.60;35.60;;;;;;;;;;5081313;28;20437;-96
2021/06/09 10:01:20;;;;;;;38.27;35.13;;;;;;;;;;5086165;28;20438;-96
2021/06/09 10:03:48;;;;;;;38.53;35.63;;;;;;;;;;5065086;28;20441;-96
2021/06/09 10:06:33;;;;;;;33.43;31.07;;;;;;;;;;5082549;28;20437;-96
2021/06/09 10:09:07;;;;;;;35.87;33.20;;;;;;;;;;5077242;28;20496;-96
2021/06/09 10:11:34;;;;;;;34.73;32.23;;;;;;;;;;5079521;28;20455;-96
2021/06/09 10:14:14;;;;;;;38.87;35.77;;;;;;;;;;5078875;28;20440;-96
2021/06/09 10:16:41;;;;;;;45.93;42.07;;;;;;;;;;5591272;22;20499;-96
2021/06/09 10:19:09;;;;;;;44.80;41.07;;;;;;;;;;5085313;28;20438;-90
2021/06/09 10:21:44;;;;;;;43.40;39.97;;;;;;;;;;5081224;28;20415;-96
2021/06/09 10:24:11;;;;;;;42.03;38.87;;;;;;;;;;5077363;28;20412;-96
2021/06/09 10:26:39;;;;;;;42.47;39.20;;;;;;;;;;5068549;28;20437;-96
2021/06/09 10:29:14;;;;;;;42.30;39.03;;;;;;;;;;5068535;28;20466;-96
2021/06/09 10:31:43;;;;;;;43.63;39.90;;;;;;;;;;5089869;28;20422;-96
2021/06/09 10:34:10;;;;;;;41.37;38.13;;;;;;;;;;5152695;22;20448;-96
2021/06/09 10:36:41;;;;;;;40.17;37.07;;;;;;;;;;5085623;28;20469;-96
2021/06/09 10:39:08;;;;;;;41.23;37.93;;;;;;;;;;5093676;28;20448;-96
2021/06/09 10:41:39;;;;;;;41.73;38.33;;;;;;;;;;5088677;28;20434;-96
2021/06/09 10:44:06;;;;;;;42.37;39.00;;;;;;;;;;5086166;28;20524;-96
2021/06/09 10:46:35;;;;;;;41.47;38.10;;;;;;;;;;5084100;28;20400;-93
2021/06/09 10:49:03;;;;;;;43.33;40.03;;;;;;;;;;5078795;28;20481;-96
2021/06/09 10:51:30;;;;;;;41.23;37.93;;;;;;;;;;5077006;28;20417;-87
2021/06/09 10:53:59;;;;;;;39.23;36.17;;;;;;;;;;5074556;28;20442;-82
2021/06/09 10:56:27;;;;;;;39.97;36.97;;;;;;;;;;5074082;28;20940;-96
2021/06/09 10:58:54;;;;;;;38.20;35.50;;;;;;;;;;5074438;28;20523;-96
2021/06/09 11:01:24;;;;;;;39.30;36.30;;;;;;;;;;5078071;28;20444;-96
2021/06/09 11:03:54;;;;;;;42.13;38.73;;;;;;;;;;5075003;28;20529;-94
2021/06/09 11:06:35;;;;;;;39.37;36.43;;;;;;;;;;5075949;28;20923;-96
2021/06/09 11:09:12;;;;;;;36.73;33.97;;;;;;;;;;5076051;28;20460;-96
2021/06/09 11:11:38;;;;;;;37.50;34.70;;;;;;;;;;5075084;28;20443;-96
2021/06/09 11:14:18;;;;;;;39.20;36.20;;;;;;;;;;5075745;28;20465;-96
2021/06/09 11:16:48;;;;;;;36.97;34.20;;;;;;;;;;5074574;28;20473;-96
2021/06/09 11:19:30;;;;;;;37.23;34.50;;;;;;;;;;5074555;28;20452;-96
2021/06/09 11:22:12;;;;;;;35.60;32.87;;;;;;;;;;5075226;28;20437;-95
2021/06/09 11:24:41;;;;;;;34.93;32.53;;;;;;;;;;5076356;28;20433;-89
2021/06/09 11:27:23;;;;;;;36.50;33.90;;;;;;;;;;5080525;28;20432;-95
2021/06/09 11:29:51;;;;;;;34.97;32.47;;;;;;;;;;5077830;28;20446;-95
2021/06/09 11:32:19;;;;;;;34.37;31.93;;;;;;;;;;5078392;28;20441;-93
2021/06/09 11:34:55;;;;;;;34.17;31.63;;;;;;;;;;5077980;28;20486;-94
2021/06/09 11:37:26;;;;;;;33.87;31.57;;;;;;;;;;5078697;28;20500;-93
2021/06/09 11:39:59;;;;;;;36.03;33.43;;;;;;;;;;5078432;28;20444;-95
2021/06/09 11:42:27;;;;;;;34.10;31.70;;;;;;;;;;5078489;28;20438;-95
2021/06/09 11:44:54;;;;;;;32.17;30.03;;;;;;;;;;5078159;28;20449;-94
2021/06/09 11:47:25;;;;;;;33.53;31.33;;;;;;;;;;5060955;28;21003;-95
2021/06/09 11:49:53;;;;;;;33.60;31.03;;;;;;;;;;5061221;28;20420;-95
2021/06/09 11:52:21;;;;;;;32.57;30.37;;;;;;;;;;5078452;28;20464;-94
2021/06/09 11:55:11;;;;;;;30.30;28.10;;;;;;;;;;5078391;28;20878;-95
2021/06/09 11:57:38;;;;;;;31.77;29.67;;;;;;;;;;5078803;28;20434;-92
2021/06/09 12:00:06;;;;;;;29.50;27.60;;;;;;;;;;5079813;28;20431;-91
2021/06/09 12:02:33;;;;;;;29.27;27.30;;;;;;;;;;5082147;28;20442;-92
2021/06/09 12:05:02;;;;;;;29.10;27.00;;;;;;;;;;5066368;28;20412;-92
2021/06/09 12:07:29;;;;;;;30.17;28.07;;;;;;;;;;5079645;28;20437;-93
2021/06/09 12:10:00;;;;;;;31.03;29.03;;;;;;;;;;5081568;28;20474;-93
2021/06/09 12:12:28;;;;;;;30.63;28.57;;;;;;;;;;5083478;28;20428;-94
2021/06/09 12:14:56;;;;;;;30.33;28.33;;;;;;;;;;5082366;28;21042;-93
2021/06/09 12:17:32;;;;;;;31.70;29.60;;;;;;;;;;5084340;28;20414;-95
2021/06/09 12:20:00;;;;;;;31.20;29.13;;;;;;;;;;5075291;28;20441;-91
2021/06/09 12:22:30;;;;;;;31.00;29.00;;;;;;;;;;5091335;28;20430;-91
2021/06/09 12:25:02;;;;;;;32.10;29.90;;;;;;;;;;5333178;22;20521;-92
2021/06/09 12:27:29;;;;;;;31.63;29.50;;;;;;;;;;5082265;28;20591;-91
2021/06/09 12:29:56;;;;;;;32.33;29.83;;;;;;;;;;5078319;28;20458;-91
2021/06/09 12:32:25;;;;;;;31.80;29.50;;;;;;;;;;5078212;28;20439;-92
2021/06/09 12:34:56;;;;;;;31.00;29.00;;;;;;;;;;5078666;28;20436;-92
2021/06/09 12:37:23;;;;;;;32.40;30.00;;;;;;;;;;5078054;28;20461;-92
2021/06/09 12:39:54;;;;;;;31.97;29.80;;;;;;;;;;5078834;28;20442;-80
2021/06/09 12:42:23;;;;;;;31.90;29.87;;;;;;;;;;5081374;28;20433;-91
2021/06/09 12:44:50;;;;;;;30.70;28.70;;;;;;;;;;5081736;28;20793;-92
2021/06/09 12:47:27;;;;;;;34.40;32.10;;;;;;;;;;5082713;28;20434;-91
2021/06/09 12:50:10;;;;;;;31.50;29.50;;;;;;;;;;5083734;28;21050;-91
2021/06/09 12:52:37;;;;;;;31.07;28.80;;;;;;;;;;5086945;28;20421;-92
2021/06/09 12:55:10;;;;;;;33.00;30.90;;;;;;;;;;5085433;28;20462;-91
2021/06/09 12:57:39;;;;;;;35.07;32.53;;;;;;;;;;5085717;28;20844;-92
2021/06/09 13:00:22;;;;;;;33.37;31.07;;;;;;;;;;5075760;28;20885;-91
2021/06/09 13:02:49;;;;;;;33.27;31.07;;;;;;;;;;5077472;28;20452;-92
2021/06/09 13:05:16;;;;;;;34.37;31.97;;;;;;;;;;5077153;28;20495;-91
2021/06/09 13:10:24;;;;;;;32.07;29.93;;;;;;;;;;5077695;28;20426;-92
2021/06/09 13:12:53;;;;;;;32.57;30.40;;;;;;;;;;5077871;28;20788;-91
2021/06/09 13:15:21;;;;;;;32.77;30.67;;;;;;;;;;5077713;28;20835;-90
2021/06/09 13:17:49;;;;;;;32.03;29.73;;;;;;;;;;5075790;28;20468;-91
2021/06/09 13:20:19;;;;;;;33.70;31.20;;;;;;;;;;5076350;28;20792;-91
2021/06/09 13:22:47;;;;;;;29.83;27.93;;;;;;;;;;5078551;28;20439;-92
2021/06/09 13:25:14;;;;;;;32.03;29.90;;;;;;;;;;5076725;28;20531;-92
2021/06/09 13:27:41;;;;;;;32.50;30.30;;;;;;;;;;5077486;28;20413;-92
2021/06/09 13:30:12;;;;;;;32.70;30.60;;;;;;;;;;5079184;28;20507;-92
2021/06/09 13:32:39;;;;;;;33.87;31.67;;;;;;;;;;5076650;28;20896;-93
2021/06/09 13:35:08;;;;;;;33.80;31.70;;;;;;;;;;5078544;28;20449;-93
2021/06/09 13:37:36;;;;;;;31.27;29.27;;;;;;;;;;5081161;28;20516;-93
2021/06/09 13:40:06;;;;;;;31.83;29.73;;;;;;;;;;5075937;28;20923;-94
2021/06/09 13:42:34;;;;;;;32.90;30.63;;;;;;;;;;5076285;28;20410;-92
2021/06/09 13:45:03;;;;;;;32.23;30.13;;;;;;;;;;5075272;28;20436;-93
2021/06/09 13:47:34;;;;;;;33.27;31.17;;;;;;;;;;5076611;28;20522;-94
2021/06/09 13:50:02;;;;;;;31.37;29.37;;;;;;;;;;5076301;28;20514;-93
2021/06/09 13:52:30;;;;;;;32.63;30.47;;;;;;;;;;5082301;28;20465;-93
2021/06/09 13:54:58;;;;;;;32.70;30.60;;;;;;;;;;5084066;28;20448;-93
2021/06/09 13:57:28;;;;;;;30.50;28.40;;;;;;;;;;5082742;28;20462;-93
2021/06/09 13:59:57;;;;;;;30.57;28.67;;;;;;;;;;5079717;28;20444;-93
2021/06/09 14:02:27;;;;;;;30.23;28.33;;;;;;;;;;5077972;28;20429;-93
2021/06/09 14:05:02;;;;;;;31.13;29.07;;;;;;;;;;5075874;28;20416;-91
2021/06/09 14:07:30;;;;;;;29.73;27.83;;;;;;;;;;5075300;28;20426;-93
2021/06/09 14:10:01;;;;;;;30.93;28.97;;;;;;;;;;5075842;28;20483;-91
2021/06/09 14:12:35;;;;;;;31.50;29.50;;;;;;;;;;5076286;28;20968;-92
2021/06/09 14:15:07;;;;;;;30.30;28.40;;;;;;;;;;5079873;28;20454;-93
2021/06/09 14:17:34;;;;;;;30.13;28.13;;;;;;;;;;5077114;28;20932;-93
2021/06/09 14:20:05;;;;;;;32.27;30.17;;;;;;;;;;5077008;28;20508;-93
2021/06/09 14:22:33;;;;;;;30.23;28.00;;;;;;;;;;5078884;28;20448;-92
2021/06/09 14:25:11;;;;;;;31.03;29.13;;;;;;;;;;5075510;28;20828;-93
2021/06/09 14:27:48;;;;;;;31.20;29.30;;;;;;;;;;5076076;28;20435;-92
2021/06/09 14:30:17;;;;;;;33.07;30.87;;;;;;;;;;5075750;28;20448;-92
2021/06/09 14:33:04;;;;;;;33.83;31.63;;;;;;;;;;5076650;28;20440;-93
2021/06/09 14:35:33;;;;;;;31.40;29.30;;;;;;;;;;5062936;28;20988;-92
2021/06/09 14:38:00;;;;;;;32.93;30.83;;;;;;;;;;5077228;28;20436;-93
2021/06/09 14:40:28;;;;;;;33.23;31.13;;;;;;;;;;5082137;28;20451;-92
2021/06/09 14:43:06;;;;;;;34.30;32.00;;;;;;;;;;5084358;28;20444;-92